createdAt,value
2023-05-09T00:00:10.983Z,9.32
2023-05-09T00:02:40.081Z,8.98
2023-05-09T00:05:10.253Z,9.13
2023-05-09T00:07:40.145Z,9.27
2023-05-09T00:10:10.651Z,9.00
2023-05-09T00:12:39.610Z,9.20
2023-05-09T00:15:09.724Z,9.15
2023-05-09T00:17:38.506Z,9.65
2023-05-09T00:20:12.575Z,8.55
2023-05-09T00:22:42.472Z,8.95
2023-05-09T00:25:12.763Z,8.10
2023-05-09T00:27:41.551Z,9.27
2023-05-09T00:30:10.430Z,8.80
2023-05-09T00:32:41.912Z,8.93
2023-05-09T00:35:10.894Z,8.30
2023-05-09T00:37:40.869Z,8.40
2023-05-09T00:40:11.600Z,8.48
2023-05-09T00:42:41.183Z,8.48
2023-05-09T00:45:10.762Z,8.27
2023-05-09T00:47:40.686Z,8.07
2023-05-09T00:50:10.502Z,7.68
2023-05-09T00:52:40.678Z,7.78
2023-05-09T00:55:11.667Z,8.35
2023-05-09T00:57:41.221Z,8.48
2023-05-09T01:00:13.200Z,7.70
2023-05-09T01:02:43.320Z,7.45
2023-05-09T01:05:13.289Z,7.47
2023-05-09T01:07:47.624Z,7.07
2023-05-09T01:10:24.124Z,7.35
2023-05-09T01:13:00.378Z,7.43
2023-05-09T01:15:35.445Z,6.50
2023-05-09T01:18:10.492Z,7.03
2023-05-09T01:20:45.917Z,6.72
2023-05-09T01:23:44.030Z,7.75
2023-05-09T01:26:22.167Z,7.10
2023-05-09T01:29:10.513Z,7.78
2023-05-09T01:31:43.609Z,7.65
2023-05-09T01:34:15.435Z,7.60
2023-05-09T01:36:45.524Z,7.05
2023-05-09T01:39:14.837Z,7.45
2023-05-09T01:41:44.248Z,7.28
2023-05-09T01:44:16.138Z,6.30
2023-05-09T01:46:46.344Z,7.13
2023-05-09T01:49:15.367Z,6.00
2023-05-09T01:51:44.716Z,6.78
2023-05-09T01:54:14.520Z,6.70
2023-05-09T01:56:44.770Z,7.05
2023-05-09T01:59:16.451Z,6.15
2023-05-09T02:01:46.082Z,6.38
2023-05-09T02:04:17.454Z,6.75
2023-05-09T02:06:50.646Z,6.30
2023-05-09T02:09:20.101Z,6.40
2023-05-09T02:11:48.541Z,6.40
2023-05-09T02:14:19.325Z,5.80
2023-05-09T02:16:48.395Z,6.20
2023-05-09T02:19:17.781Z,6.97
2023-05-09T02:21:47.511Z,6.07
2023-05-09T02:24:16.108Z,6.45
2023-05-09T02:26:45.036Z,6.43
2023-05-09T02:29:14.119Z,6.32
2023-05-09T02:31:47.914Z,6.60
2023-05-09T02:34:17.604Z,5.80
2023-05-09T02:36:47.238Z,5.63
2023-05-09T02:39:16.090Z,5.85
2023-05-09T02:41:49.563Z,5.72
2023-05-09T02:44:17.877Z,5.95
2023-05-09T02:46:48.001Z,6.20
2023-05-09T02:49:31.552Z,6.03
2023-05-09T02:52:02.969Z,5.35
2023-05-09T02:54:32.399Z,5.75
2023-05-09T02:57:00.835Z,5.72
2023-05-09T02:59:30.318Z,5.97
2023-05-09T03:02:03.415Z,5.80
2023-05-09T03:04:33.345Z,6.47
2023-05-09T03:07:02.592Z,7.20
2023-05-09T03:09:34.140Z,5.78
2023-05-09T03:12:04.222Z,5.82
2023-05-09T03:14:32.670Z,5.97
2023-05-09T03:17:03.743Z,5.93
2023-05-09T03:19:36.242Z,6.28
2023-05-09T03:22:05.099Z,6.22
2023-05-09T03:24:37.251Z,5.63
2023-05-09T03:27:06.548Z,6.00
2023-05-09T03:29:34.898Z,6.20
2023-05-09T03:32:06.242Z,5.25
2023-05-09T03:34:34.721Z,5.07
2023-05-09T03:37:04.289Z,5.65
2023-05-09T03:39:34.048Z,5.43
2023-05-09T03:42:04.037Z,5.65
2023-05-09T03:44:32.482Z,6.88
2023-05-09T03:47:02.601Z,6.70
2023-05-09T03:49:39.284Z,6.15
2023-05-09T03:52:09.928Z,7.60
2023-05-09T03:54:38.551Z,7.75
2023-05-09T03:57:07.916Z,7.03
2023-05-09T03:59:36.479Z,6.78
2023-05-09T04:02:05.994Z,8.13
2023-05-09T04:04:34.998Z,7.72
2023-05-09T04:07:05.325Z,6.68
2023-05-09T04:09:34.506Z,7.28
2023-05-09T04:12:02.842Z,8.02
2023-05-09T04:14:32.131Z,7.07
2023-05-09T04:17:01.315Z,7.22
2023-05-09T04:19:29.792Z,6.38
2023-05-09T04:21:59.520Z,6.72
2023-05-09T04:24:29.559Z,7.00
2023-05-09T04:26:58.989Z,6.35
2023-05-09T04:29:28.512Z,6.60
2023-05-09T04:31:57.962Z,6.63
2023-05-09T04:34:28.789Z,6.82
2023-05-09T04:37:01.170Z,6.18
2023-05-09T04:39:31.552Z,5.80
2023-05-09T04:42:12.185Z,6.10
2023-05-09T04:44:40.556Z,6.68
2023-05-09T04:47:09.434Z,6.00
2023-05-09T04:49:37.799Z,6.30
2023-05-09T04:52:06.928Z,6.20
2023-05-09T04:54:38.085Z,6.38
2023-05-09T04:57:17.074Z,6.68
2023-05-09T04:59:49.694Z,6.30
2023-05-09T05:02:20.213Z,6.28
2023-05-09T05:04:50.616Z,5.93
2023-05-09T05:07:19.303Z,5.15
2023-05-09T05:09:49.846Z,5.82
2023-05-09T05:12:18.884Z,5.60
2023-05-09T05:14:49.790Z,5.25
2023-05-09T05:17:21.805Z,5.53
2023-05-09T05:19:51.188Z,4.80
2023-05-09T05:22:19.931Z,5.82
2023-05-09T05:24:51.427Z,5.80
2023-05-09T05:27:20.342Z,5.80
2023-05-09T05:29:49.003Z,5.88
2023-05-09T05:32:18.673Z,5.28
2023-05-09T05:34:47.185Z,5.75
2023-05-09T05:37:15.897Z,5.35
2023-05-09T05:39:44.364Z,5.40
2023-05-09T05:42:14.259Z,5.43
2023-05-09T05:44:43.963Z,5.10
2023-05-09T05:47:13.751Z,4.57
2023-05-09T05:49:43.454Z,6.07
2023-05-09T05:52:12.068Z,4.90
2023-05-09T05:54:41.897Z,5.35
2023-05-09T05:57:11.265Z,5.50
2023-05-09T05:59:40.989Z,5.53
2023-05-09T06:02:10.448Z,5.60
2023-05-09T06:04:39.401Z,5.30
2023-05-09T06:07:07.922Z,5.75
2023-05-09T06:09:37.130Z,5.80
2023-05-09T06:12:06.357Z,5.65
2023-05-09T06:14:35.054Z,5.10
2023-05-09T06:17:05.200Z,5.60
2023-05-09T06:19:33.563Z,5.38
2023-05-09T06:22:02.768Z,5.60
2023-05-09T06:24:35.818Z,5.88
2023-05-09T06:27:06.069Z,5.38
2023-05-09T06:29:34.888Z,4.43
2023-05-09T06:32:03.206Z,4.95
2023-05-09T06:34:33.818Z,5.53
2023-05-09T06:37:02.160Z,5.07
2023-05-09T06:39:30.605Z,5.45
2023-05-09T06:41:58.916Z,5.78
2023-05-09T06:44:33.656Z,5.30
2023-05-09T06:47:02.534Z,5.13
2023-05-09T06:49:33.149Z,5.50
2023-05-09T06:52:01.886Z,5.30
2023-05-09T06:54:30.316Z,5.57
2023-05-09T06:56:59.148Z,4.93
2023-05-09T06:59:27.882Z,5.43
2023-05-09T07:01:57.280Z,5.15
2023-05-09T07:04:26.526Z,4.88
2023-05-09T07:06:57.825Z,6.22
2023-05-09T07:09:28.560Z,5.97
2023-05-09T07:11:57.649Z,6.28
2023-05-09T07:14:26.107Z,6.07
2023-05-09T07:17:02.368Z,6.05
2023-05-09T07:19:38.970Z,5.70
2023-05-09T07:22:09.053Z,5.80
2023-05-09T07:24:37.416Z,6.05
2023-05-09T07:27:06.081Z,5.72
2023-05-09T07:29:35.234Z,6.22
2023-05-09T07:32:03.630Z,6.20
2023-05-09T07:34:32.665Z,6.55
2023-05-09T07:37:00.986Z,5.85
2023-05-09T07:39:31.087Z,6.15
2023-05-09T07:42:00.349Z,5.88
2023-05-09T07:44:28.767Z,6.03
2023-05-09T07:46:59.613Z,5.72
2023-05-09T07:49:28.405Z,5.75
2023-05-09T07:51:57.249Z,6.20
2023-05-09T07:54:25.584Z,5.95
2023-05-09T07:56:55.702Z,6.15
2023-05-09T07:59:24.062Z,5.45
2023-05-09T08:01:52.422Z,5.72
2023-05-09T08:04:20.853Z,5.93
2023-05-09T08:06:49.354Z,5.93
2023-05-09T08:09:18.635Z,5.97
2023-05-09T08:11:47.185Z,5.82
2023-05-09T08:14:17.335Z,5.65
2023-05-09T08:16:45.636Z,5.85
2023-05-09T08:19:15.250Z,6.00
2023-05-09T08:21:43.614Z,6.13
2023-05-09T08:24:12.782Z,6.90
2023-05-09T08:26:41.153Z,6.25
2023-05-09T08:29:09.525Z,6.65
2023-05-09T08:31:39.342Z,6.40
2023-05-09T08:34:07.734Z,6.65
2023-05-09T08:36:36.166Z,6.35
2023-05-09T08:39:04.671Z,6.85
2023-05-09T08:41:36.653Z,7.05
2023-05-09T08:44:05.988Z,7.30
2023-05-09T08:46:40.464Z,6.85
2023-05-09T08:49:10.526Z,7.00
2023-05-09T08:51:39.437Z,6.82
2023-05-09T08:54:08.372Z,7.00
2023-05-09T08:56:37.357Z,7.13
2023-05-09T08:59:06.666Z,7.25
2023-05-09T09:01:36.700Z,6.80
2023-05-09T09:04:08.625Z,7.20
2023-05-09T09:06:37.733Z,6.53
2023-05-09T09:09:08.462Z,7.47
2023-05-09T09:11:38.874Z,6.97
2023-05-09T09:14:12.796Z,6.72
2023-05-09T09:16:42.838Z,8.13
2023-05-09T09:19:17.599Z,7.75
2023-05-09T09:21:48.484Z,7.70
2023-05-09T09:24:22.479Z,7.82
2023-05-09T09:26:52.581Z,7.70
2023-05-09T09:29:22.826Z,8.35
2023-05-09T09:31:55.300Z,8.48
2023-05-09T09:34:25.666Z,8.10
2023-05-09T09:36:54.630Z,8.15
2023-05-09T09:39:23.848Z,7.70
2023-05-09T09:41:52.858Z,7.47
2023-05-09T09:44:23.381Z,8.50
2023-05-09T09:46:53.066Z,7.82
2023-05-09T09:49:24.873Z,7.90
2023-05-09T09:51:56.494Z,8.35
2023-05-09T09:54:28.121Z,8.90
2023-05-09T09:56:57.308Z,8.60
2023-05-09T09:59:26.992Z,8.13
2023-05-09T10:02:01.942Z,8.82
2023-05-09T10:04:34.679Z,7.60
2023-05-09T10:07:06.477Z,8.27
2023-05-09T10:09:37.864Z,8.23
2023-05-09T10:12:08.687Z,9.02
2023-05-09T10:14:39.371Z,8.20
2023-05-09T10:17:09.214Z,8.20
2023-05-09T10:19:41.308Z,7.82
2023-05-09T10:22:16.040Z,8.77
2023-05-09T10:24:49.540Z,8.80
2023-05-09T10:27:23.197Z,9.07
2023-05-09T10:29:58.556Z,8.30
2023-05-09T10:32:33.034Z,7.97
2023-05-09T10:35:06.374Z,9.02
2023-05-09T10:37:38.203Z,8.52
2023-05-09T10:40:08.148Z,7.97
2023-05-09T10:42:37.388Z,8.95
2023-05-09T10:45:09.712Z,8.23
2023-05-09T10:47:39.421Z,8.52
2023-05-09T10:50:10.519Z,8.35
2023-05-09T10:53:08.252Z,7.88
2023-05-09T10:55:49.181Z,8.20
2023-05-09T10:58:27.455Z,7.70
2023-05-09T11:00:57.890Z,7.72
2023-05-09T11:03:27.580Z,7.80
2023-05-09T11:05:58.686Z,7.80
2023-05-09T11:08:30.076Z,8.57
2023-05-09T11:11:00.731Z,8.55
2023-05-09T11:13:33.814Z,7.97
2023-05-09T11:16:20.172Z,8.45
2023-05-09T11:18:54.210Z,9.75
2023-05-09T11:21:22.883Z,7.80
2023-05-09T11:23:55.285Z,7.30
2023-05-09T11:26:30.204Z,8.02
2023-05-09T11:29:01.224Z,8.15
2023-05-09T11:31:29.782Z,8.63
2023-05-09T11:34:05.964Z,8.13
2023-05-09T11:36:35.571Z,8.02
2023-05-09T11:39:08.444Z,8.50
2023-05-09T11:41:42.027Z,7.45
2023-05-09T11:44:18.346Z,8.07
2023-05-09T11:46:48.674Z,9.00
2023-05-09T11:49:19.812Z,8.57
2023-05-09T11:51:48.569Z,7.80
2023-05-09T11:54:18.499Z,7.72
2023-05-09T11:56:48.851Z,8.57
2023-05-09T11:59:18.846Z,7.72
2023-05-09T12:01:48.020Z,7.85
2023-05-09T12:04:16.545Z,8.13
2023-05-09T12:06:49.097Z,7.38
2023-05-09T12:09:20.034Z,6.90
2023-05-09T12:11:50.504Z,8.10
2023-05-09T12:14:28.529Z,7.60
2023-05-09T12:16:57.009Z,7.20
2023-05-09T12:19:26.279Z,7.18
2023-05-09T12:21:59.157Z,7.25
2023-05-09T12:24:29.849Z,7.45
2023-05-09T12:27:01.346Z,7.35
2023-05-09T12:29:31.227Z,7.22
2023-05-09T12:32:01.320Z,7.38
2023-05-09T12:34:31.759Z,7.30
2023-05-09T12:37:03.559Z,7.18
2023-05-09T12:39:34.183Z,6.35
2023-05-09T12:42:02.608Z,7.70
2023-05-09T12:44:32.821Z,6.43
2023-05-09T12:47:03.737Z,7.65
2023-05-09T12:49:33.498Z,7.03
2023-05-09T12:52:04.763Z,6.75
2023-05-09T12:54:36.120Z,7.10
2023-05-09T12:57:05.705Z,6.50
2023-05-09T12:59:34.515Z,5.45
2023-05-09T13:02:02.975Z,5.93
2023-05-09T13:04:32.461Z,5.70
2023-05-09T13:07:00.834Z,5.38
2023-05-09T13:09:29.981Z,6.15
2023-05-09T13:12:00.327Z,5.60
2023-05-09T13:14:29.850Z,5.40
2023-05-09T13:16:58.348Z,6.55
2023-05-09T13:19:27.921Z,5.38
2023-05-09T13:21:56.874Z,5.70
2023-05-09T13:24:25.198Z,6.43
2023-05-09T13:26:54.368Z,6.00
2023-05-09T13:29:24.046Z,6.72
2023-05-09T13:31:53.251Z,6.18
2023-05-09T13:34:21.638Z,6.15
2023-05-09T13:36:49.991Z,6.47
2023-05-09T13:39:18.307Z,6.47
2023-05-09T13:41:47.216Z,6.00
2023-05-09T13:44:16.513Z,5.78
2023-05-09T13:46:46.653Z,6.70
2023-05-09T13:49:15.576Z,6.10
2023-05-09T13:51:45.564Z,6.13
2023-05-09T13:54:16.322Z,6.72
2023-05-09T13:56:45.089Z,6.13
2023-05-09T13:59:13.935Z,6.68
2023-05-09T14:01:43.044Z,6.40
2023-05-09T14:04:13.821Z,6.05
2023-05-09T14:06:48.006Z,6.85
2023-05-09T14:09:17.558Z,6.50
2023-05-09T14:11:46.127Z,6.35
2023-05-09T14:14:15.352Z,6.40
2023-05-09T14:16:44.136Z,6.70
2023-05-09T14:19:15.185Z,7.22
2023-05-09T14:21:44.567Z,7.43
2023-05-09T14:24:16.020Z,6.82
2023-05-09T14:26:45.055Z,6.40
2023-05-09T14:29:14.535Z,7.30
2023-05-09T14:31:42.895Z,6.13
2023-05-09T14:34:13.002Z,12.05
2023-05-09T14:36:41.448Z,6.85
2023-05-09T14:39:09.931Z,7.07
2023-05-09T14:41:39.072Z,7.28
2023-05-09T14:44:07.622Z,7.22
2023-05-09T14:46:36.963Z,6.63
2023-05-09T14:49:05.806Z,7.65
2023-05-09T14:51:35.833Z,6.93
2023-05-09T14:54:04.763Z,6.68
2023-05-09T14:56:33.588Z,7.18
2023-05-09T14:59:03.437Z,7.40
2023-05-09T15:01:32.324Z,6.30
2023-05-09T15:04:01.166Z,6.68
2023-05-09T15:06:31.442Z,7.05
2023-05-09T15:09:01.725Z,7.32
2023-05-09T15:11:36.405Z,6.88
2023-05-09T15:14:16.490Z,6.90
2023-05-09T15:16:45.116Z,7.40
2023-05-09T15:19:15.075Z,7.05
2023-05-09T15:21:43.429Z,6.35
2023-05-09T15:24:13.604Z,6.75
2023-05-09T15:26:41.973Z,7.78
2023-05-09T15:29:11.327Z,7.30
2023-05-09T15:31:40.203Z,6.03
2023-05-09T15:34:08.551Z,6.93
2023-05-09T15:36:37.248Z,6.35
2023-05-09T15:39:06.037Z,7.30
2023-05-09T15:41:35.712Z,7.15
2023-05-09T15:44:04.508Z,6.90
2023-05-09T15:46:33.186Z,7.47
2023-05-09T15:49:02.449Z,5.55
2023-05-09T15:51:31.010Z,6.20
2023-05-09T15:54:00.046Z,6.15
2023-05-09T15:56:28.466Z,5.80
2023-05-09T15:58:59.785Z,6.35
2023-05-09T16:01:28.220Z,5.70
2023-05-09T16:03:56.730Z,4.80
2023-05-09T16:06:26.317Z,5.93
2023-05-09T16:08:54.807Z,5.75
2023-05-09T16:11:23.653Z,5.30
2023-05-09T16:13:52.041Z,6.10
2023-05-09T16:16:23.432Z,5.50
2023-05-09T16:18:51.951Z,4.70
2023-05-09T16:21:21.979Z,3.95
2023-05-09T16:23:50.895Z,3.70
2023-05-09T16:26:19.239Z,3.70
2023-05-09T16:28:48.188Z,3.70
2023-05-09T16:31:16.557Z,3.03
2023-05-09T16:33:47.085Z,3.30
2023-05-09T16:36:15.480Z,3.63
2023-05-09T16:38:44.681Z,3.13
2023-05-09T16:41:14.128Z,3.47
2023-05-09T16:43:42.747Z,3.10
2023-05-09T16:46:11.423Z,3.00
2023-05-09T16:48:40.303Z,3.60
2023-05-09T16:51:10.145Z,3.90
2023-05-09T16:53:38.815Z,3.00
2023-05-09T16:56:07.947Z,2.90
2023-05-09T16:58:37.152Z,3.17
2023-05-09T17:01:06.156Z,3.20
2023-05-09T17:03:34.553Z,4.53
2023-05-09T17:06:04.354Z,3.33
2023-05-09T17:08:34.834Z,3.03
2023-05-09T17:11:03.198Z,3.50
2023-05-09T17:13:32.417Z,4.30
2023-05-09T17:16:02.020Z,3.83
2023-05-09T17:18:37.398Z,4.18
2023-05-09T17:21:07.625Z,3.38
2023-05-09T17:23:37.875Z,4.30
2023-05-09T17:26:07.410Z,3.72
2023-05-09T17:28:35.739Z,3.63
2023-05-09T17:31:05.062Z,4.25
2023-05-09T17:33:33.454Z,3.92
2023-05-09T17:36:02.574Z,3.53
2023-05-09T17:38:31.238Z,3.55
2023-05-09T17:41:01.456Z,3.30
2023-05-09T17:43:29.975Z,3.40
2023-05-09T17:45:59.445Z,3.22
2023-05-09T17:48:27.819Z,3.22
2023-05-09T17:50:56.723Z,3.20
2023-05-09T17:53:26.019Z,3.17
2023-05-09T17:55:55.559Z,3.20
2023-05-09T17:58:25.356Z,3.85
2023-05-09T18:00:55.084Z,3.60
2023-05-09T18:03:24.040Z,3.20
2023-05-09T18:05:52.544Z,3.45
2023-05-09T18:08:22.578Z,3.55
2023-05-09T18:10:51.425Z,3.28
2023-05-09T18:13:19.965Z,3.75
2023-05-09T18:15:51.194Z,3.63
2023-05-09T18:18:19.620Z,3.45
2023-05-09T18:20:48.239Z,3.42
2023-05-09T18:23:16.627Z,3.78
2023-05-09T18:25:46.085Z,3.50
2023-05-09T18:28:14.409Z,4.03
2023-05-09T18:30:44.098Z,3.75
2023-05-09T18:33:13.797Z,3.95
2023-05-09T18:35:42.707Z,3.97
2023-05-09T18:38:11.141Z,3.70
2023-05-09T18:40:40.065Z,3.70
2023-05-09T18:43:08.954Z,3.50
2023-05-09T18:45:37.685Z,3.90
2023-05-09T18:48:06.490Z,3.63
2023-05-09T18:50:38.267Z,4.10
2023-05-09T18:53:07.441Z,4.30
2023-05-09T18:55:35.981Z,3.70
2023-05-09T18:58:04.885Z,3.63
2023-05-09T19:00:34.102Z,4.30
2023-05-09T19:03:03.324Z,4.28
2023-05-09T19:05:31.717Z,4.60
2023-05-09T19:08:02.030Z,4.35
2023-05-09T19:10:30.506Z,4.55
2023-05-09T19:12:59.789Z,4.13
2023-05-09T19:15:29.569Z,4.82
2023-05-09T19:17:58.990Z,4.32
2023-05-09T19:20:29.942Z,4.75
2023-05-09T19:22:58.784Z,4.70
2023-05-09T19:25:30.781Z,4.43
2023-05-09T19:27:59.678Z,4.70
2023-05-09T19:30:28.470Z,4.28
2023-05-09T19:32:56.826Z,4.43
2023-05-09T19:35:26.622Z,4.80
2023-05-09T19:37:55.072Z,4.40
2023-05-09T19:40:24.248Z,4.60
2023-05-09T19:42:54.017Z,4.43
2023-05-09T19:45:23.083Z,4.30
2023-05-09T19:47:51.699Z,4.85
2023-05-09T19:50:20.265Z,4.43
2023-05-09T19:52:49.130Z,4.63
2023-05-09T19:55:17.560Z,4.28
2023-05-09T19:57:47.278Z,4.55
2023-05-09T20:00:18.607Z,4.65
2023-05-09T20:02:47.367Z,4.55
2023-05-09T20:05:16.528Z,4.35
2023-05-09T20:07:44.881Z,4.40
2023-05-09T20:10:15.932Z,4.90
2023-05-09T20:12:44.677Z,4.10
2023-05-09T20:15:14.064Z,4.82
2023-05-09T20:17:44.562Z,4.72
2023-05-09T20:20:14.301Z,4.78
2023-05-09T20:22:43.283Z,4.53
2023-05-09T20:25:13.485Z,3.83
2023-05-09T20:27:41.945Z,4.63
2023-05-09T20:30:13.188Z,4.80
2023-05-09T20:32:41.792Z,4.78
2023-05-09T20:35:12.486Z,4.57
2023-05-09T20:37:40.784Z,4.50
2023-05-09T20:40:10.571Z,4.60
2023-05-09T20:42:39.229Z,4.38
2023-05-09T20:45:09.195Z,4.80
2023-05-09T20:47:37.595Z,4.82
2023-05-09T20:50:07.930Z,4.13
2023-05-09T20:52:37.724Z,4.30
2023-05-09T20:55:06.972Z,4.15
2023-05-09T20:57:36.050Z,4.35
2023-05-09T21:00:07.513Z,4.30
2023-05-09T21:02:36.717Z,4.93
2023-05-09T21:05:06.100Z,3.95
2023-05-09T21:07:34.986Z,4.20
2023-05-09T21:10:05.070Z,4.60
2023-05-09T21:12:34.079Z,4.20
2023-05-09T21:15:03.147Z,4.00
2023-05-09T21:17:32.464Z,4.30
2023-05-09T21:20:01.326Z,4.60
2023-05-09T21:22:29.810Z,4.40
2023-05-09T21:24:59.099Z,4.30
2023-05-09T21:27:31.315Z,4.32
2023-05-09T21:30:00.590Z,4.30
2023-05-09T21:32:29.759Z,4.70
2023-05-09T21:34:58.160Z,4.20
2023-05-09T21:37:27.153Z,4.05
2023-05-09T21:39:55.515Z,4.45
2023-05-09T21:42:24.699Z,4.13
2023-05-09T21:44:54.492Z,3.97
2023-05-09T21:47:24.654Z,4.57
2023-05-09T21:49:53.070Z,4.30
2023-05-09T21:52:24.100Z,4.63
2023-05-09T21:54:52.499Z,4.35
2023-05-09T21:57:22.524Z,4.50
2023-05-09T21:59:50.858Z,4.38
2023-05-09T22:02:21.393Z,4.55
2023-05-09T22:04:49.746Z,4.15
2023-05-09T22:07:18.633Z,4.72
2023-05-09T22:09:47.156Z,4.35
2023-05-09T22:12:15.529Z,4.47
2023-05-09T22:14:55.315Z,4.43
2023-05-09T22:17:26.762Z,4.55
2023-05-09T22:19:56.296Z,3.80
2023-05-09T22:22:24.700Z,4.53
2023-05-09T22:24:53.646Z,4.78
2023-05-09T22:27:22.044Z,4.32
2023-05-09T22:29:51.998Z,4.25
2023-05-09T22:32:20.753Z,4.63
2023-05-09T22:34:50.568Z,4.43
2023-05-09T22:37:20.188Z,4.15
2023-05-09T22:39:48.596Z,5.07
2023-05-09T22:42:17.921Z,4.40
2023-05-09T22:44:47.156Z,4.50
2023-05-09T22:47:17.057Z,4.40
2023-05-09T22:49:45.959Z,4.32
2023-05-09T22:52:17.198Z,4.10
2023-05-09T22:54:45.579Z,4.30
2023-05-09T22:57:15.382Z,4.45
2023-05-09T22:59:43.728Z,4.15
2023-05-09T23:02:12.582Z,4.47
2023-05-09T23:04:41.917Z,4.50
2023-05-09T23:07:10.237Z,4.63
2023-05-09T23:09:41.661Z,4.82
2023-05-09T23:12:10.762Z,4.40
2023-05-09T23:14:40.210Z,4.40
2023-05-09T23:17:08.644Z,4.68
2023-05-09T23:19:38.615Z,4.15
2023-05-09T23:22:07.454Z,4.63
2023-05-09T23:24:36.010Z,5.13
2023-05-09T23:27:06.045Z,4.72
2023-05-09T23:29:35.120Z,4.25
2023-05-09T23:32:03.519Z,4.50
2023-05-09T23:34:32.741Z,4.45
2023-05-09T23:37:01.466Z,4.47
2023-05-09T23:39:30.144Z,4.30
2023-05-09T23:41:59.710Z,3.97
2023-05-09T23:44:30.126Z,4.60
2023-05-09T23:46:59.072Z,5.18
2023-05-09T23:49:27.568Z,5.00
2023-05-09T23:51:55.960Z,5.28
2023-05-09T23:54:25.921Z,4.70
2023-05-09T23:56:56.929Z,5.18
2023-05-09T23:59:25.820Z,4.43
